This is the latest recevied weather packets stored in our database for station/object DL2BWO-13. If no packets are shown the sender has not sent any weather packets the latest 10 day(s).
| Time | Temp. | Humidity | Pressure | Rain* | Wind** | Luminosity | Snow |
|---|---|---|---|---|---|---|---|
| 1777931505 | 16.67° C | 95% | 744.1 hPa | 0 mm | - | - | - |
| 1777930569 | 16.67° C | 93% | 744.3 hPa | 0 mm | - | - | - |
| 1777929633 | 17.22° C | 92% | 744.7 hPa | 0 mm | - | - | - |
| 1777908106 | 25° C | 54% | 753.5 hPa | 0 mm | - | - | - |
| 1777906234 | 25.56° C | 55% | 754.2 hPa | 0 mm | - | - | - |
| 1777905298 | 24.44° C | 57% | 753 hPa | 0 mm | - | - | - |
| 1777903426 | 25.56° C | 57% | 754.2 hPa | 0 mm | - | - | - |
| 1777902490 | 24.44° C | 59% | 753.4 hPa | 0 mm | - | - | - |
| 1777901554 | 23.89° C | 60% | 752.5 hPa | 0 mm | - | - | - |
| 1777900618 | 23.89° C | 61% | 752.6 hPa | 0 mm | - | - | - |
| 1777899682 | 23.33° C | 60% | 751.7 hPa | 0 mm | - | - | - |
| 1777898746 | 23.33° C | 58% | 752 hPa | 0 mm | - | - | - |
| 1777897810 | 24.44° C | 57% | 752.9 hPa | 0 mm | - | - | - |
| 1777896874 | 26.11° C | 54% | 755.2 hPa | 0 mm | - | - | - |
| 1777894066 | 25° C | 58% | 753.8 hPa | 0 mm | - | - | - |
| 1777893130 | 25.56° C | 56% | 754.1 hPa | 0 mm | - | - | - |
| 1777892194 | 23.89° C | 61% | 752.4 hPa | 0 mm | - | - | - |
| 1777890322 | 22.78° C | 64% | 751.1 hPa | 0 mm | - | - | - |
| 1777889386 | 23.33° C | 61% | 751.6 hPa | 0 mm | - | - | - |
| 1777888450 | 23.33° C | 61% | 751.6 hPa | 0 mm | - | - | - |
| 1777886579 | 23.33° C | 60% | 752.1 hPa | 0 mm | - | - | - |
| 1777885643 | 23.33° C | 62% | 751.9 hPa | 0 mm | - | - | - |
| 1777884707 | 22.78° C | 62% | 751.3 hPa | 0 mm | - | - | - |
| 1777883771 | 23.89° C | 62% | 752.2 hPa | 0 mm | - | - | - |
| 1777881899 | 22.78° C | 63% | 750.9 hPa | 0 mm | - | - | - |
* Rain latest hour (hover to see other rain measurements)
** Current wind speed in m/s (hover to see current wind gust speed)